createdAt,value
2018-09-04T00:00:40.923Z,12.9
2018-09-04T00:10:40.161Z,13
2018-09-04T00:20:39.399Z,13.1
2018-09-04T00:30:38.642Z,12.9
2018-09-04T00:40:37.880Z,13.1
2018-09-04T00:50:37.126Z,12.6
2018-09-04T01:00:36.368Z,12.6
2018-09-04T01:10:35.608Z,12.9
2018-09-04T01:20:34.919Z,12.6
2018-09-04T01:30:34.099Z,12.7
2018-09-04T01:40:33.335Z,12.6
2018-09-04T01:50:32.572Z,13.1
2018-09-04T02:00:31.822Z,13
2018-09-04T02:10:31.061Z,13
2018-09-04T02:20:30.300Z,13
2018-09-04T02:30:29.542Z,12.8
2018-09-04T02:40:28.787Z,12.8
2018-09-04T02:50:28.027Z,13.1
2018-09-04T03:00:27.261Z,13.2
2018-09-04T03:10:26.509Z,12.9
2018-09-04T03:20:25.747Z,13.1
2018-09-04T03:30:24.994Z,12.6
2018-09-04T03:40:24.292Z,12.5
2018-09-04T03:50:23.472Z,13.1
2018-09-04T04:00:22.720Z,13.1
2018-09-04T04:10:21.965Z,12.8
2018-09-04T04:20:21.202Z,12.6
2018-09-04T04:30:20.453Z,13.1
2018-09-04T04:40:19.694Z,12.8
2018-09-04T04:50:18.930Z,13.1
2018-09-04T05:00:18.286Z,12.5
2018-09-04T05:10:17.431Z,13
2018-09-04T05:20:16.655Z,13.2
2018-09-04T05:30:15.898Z,12.8
2018-09-04T05:40:15.138Z,12.9
2018-09-04T05:50:14.381Z,13.2
2018-09-04T06:00:13.629Z,13
2018-09-04T06:10:12.866Z,13.1
2018-09-04T06:20:12.164Z,14
2018-09-04T06:30:11.355Z,14.2
2018-09-04T06:40:10.583Z,14.1
2018-09-04T06:50:09.823Z,14.5
2018-09-04T07:00:09.070Z,14.1
2018-09-04T07:10:08.311Z,13.8
2018-09-04T07:20:07.558Z,14.5
2018-09-04T07:30:06.793Z,14.6
2018-09-04T07:40:06.028Z,14.5
2018-09-04T07:50:05.321Z,14.7
2018-09-04T08:00:04.516Z,14.3
2018-09-04T08:10:03.786Z,14.4
2018-09-04T08:20:02.996Z,14.7
2018-09-04T08:30:02.293Z,13.9
2018-09-04T08:40:01.544Z,14.3
2018-09-04T08:50:00.722Z,14.7
2018-09-04T08:59:59.966Z,14.8
2018-09-04T09:09:59.236Z,14.4
2018-09-04T09:19:58.447Z,14.3
2018-09-04T09:29:57.687Z,14.4
2018-09-04T09:39:56.934Z,14.3
2018-09-04T09:49:56.168Z,14
2018-09-04T09:59:55.457Z,14.7
2018-09-04T10:09:54.694Z,14
2018-09-04T10:19:53.960Z,14.2
2018-09-04T10:29:53.145Z,14.2
2018-09-04T10:39:52.391Z,14.6
2018-09-04T10:49:51.623Z,14.2
2018-09-04T10:59:50.871Z,14.2
2018-09-04T11:09:50.275Z,14.3
2018-09-04T11:19:49.354Z,14.4
2018-09-04T11:29:48.595Z,13.8
2018-09-04T11:39:47.838Z,14
2018-09-04T11:49:47.079Z,13.7
2018-09-04T11:59:46.374Z,13.8
2018-09-04T12:09:45.573Z,13.7
2018-09-04T12:19:44.814Z,13.6
2018-09-04T12:29:44.048Z,14.2
2018-09-04T12:39:43.308Z,14.3
2018-09-04T12:49:42.531Z,14.3
2018-09-04T12:59:41.789Z,14.3
2018-09-04T13:09:41.024Z,14.2
2018-09-04T13:19:40.258Z,13.5
2018-09-04T13:29:39.502Z,14.6
2018-09-04T13:39:38.743Z,13
2018-09-04T13:49:38.183Z,14.3
2018-09-04T13:59:37.235Z,14.4
2018-09-04T14:09:36.474Z,14.7
2018-09-04T14:19:35.715Z,13.4
2018-09-04T14:39:34.195Z,13.2
2018-09-04T14:49:33.436Z,12.8
2018-09-04T14:59:32.688Z,13.1
2018-09-04T15:09:31.919Z,13
2018-09-04T15:19:31.170Z,12.9
2018-09-04T15:29:30.410Z,13
2018-09-04T15:39:29.650Z,12.6
2018-09-04T15:49:28.934Z,13.1
2018-09-04T15:59:28.139Z,12.7
2018-09-04T16:09:27.383Z,12.9
2018-09-04T16:19:26.624Z,12.7
2018-09-04T16:29:25.868Z,13.2
2018-09-04T16:39:25.154Z,13.2
2018-09-04T16:49:24.353Z,12.7
2018-09-04T16:59:23.604Z,13.1
2018-09-04T17:09:22.845Z,13
2018-09-04T17:19:22.087Z,12.6
2018-09-04T17:29:21.326Z,12.7
2018-09-04T17:39:20.577Z,13
2018-09-04T17:49:19.817Z,12.7
2018-09-04T17:59:19.057Z,12.7
2018-09-04T18:09:18.298Z,12.9
2018-09-04T18:19:17.542Z,13.1
2018-09-04T18:29:16.785Z,12.7
2018-09-04T18:39:16.034Z,13
2018-09-04T18:49:15.279Z,13
2018-09-04T18:59:14.558Z,12.4
2018-09-04T19:09:13.764Z,12.9
2018-09-04T19:19:13.004Z,13.1
2018-09-04T19:29:12.254Z,12.6
2018-09-04T19:39:11.534Z,12.5
2018-09-04T19:49:10.735Z,12.6
2018-09-04T19:59:09.981Z,12.9
2018-09-04T20:09:09.224Z,12.6
2018-09-04T20:19:08.467Z,12.9
2018-09-04T20:29:07.710Z,13
2018-09-04T20:39:06.949Z,13
2018-09-04T20:49:06.196Z,13
2018-09-04T20:59:05.437Z,12.7
2018-09-04T21:09:04.682Z,13
2018-09-04T21:19:03.922Z,12.8
2018-09-04T21:29:03.169Z,13.1
2018-09-04T21:39:02.403Z,13
2018-09-04T21:49:01.648Z,13.2
2018-09-04T21:59:00.882Z,13
2018-09-04T22:09:00.129Z,12.9
2018-09-04T22:18:59.369Z,12.8
2018-09-04T22:28:58.607Z,12.4
2018-09-04T22:38:57.855Z,12.8
2018-09-04T22:48:57.092Z,13.1
2018-09-04T22:58:56.338Z,13.1
2018-09-04T23:08:55.577Z,12.7
2018-09-04T23:18:54.812Z,12.8
2018-09-04T23:28:54.056Z,12.9
2018-09-04T23:38:53.292Z,12.5
2018-09-04T23:48:52.540Z,12.5
2018-09-04T23:58:51.776Z,12.6
